sensor_id;sensor_type;location;lat;lon;timestamp;P1;durP1;ratioP1;P2;durP2;ratioP2
16189;SDS011;41754;51.498;7.540;2023-02-01T00:01:14;28.43;;;16.73;;
16189;SDS011;41754;51.498;7.540;2023-02-01T00:03:42;33.83;;;15.70;;
16189;SDS011;41754;51.498;7.540;2023-02-01T00:06:10;27.73;;;15.63;;
16189;SDS011;41754;51.498;7.540;2023-02-01T00:08:37;29.33;;;15.73;;
16189;SDS011;41754;51.498;7.540;2023-02-01T00:11:07;26.47;;;15.20;;
16189;SDS011;41754;51.498;7.540;2023-02-01T00:13:37;26.90;;;14.20;;
16189;SDS011;41754;51.498;7.540;2023-02-01T00:16:08;24.93;;;14.00;;
16189;SDS011;41754;51.498;7.540;2023-02-01T00:18:38;29.67;;;13.43;;
16189;SDS011;41754;51.498;7.540;2023-02-01T00:21:06;24.27;;;13.13;;
16189;SDS011;41754;51.498;7.540;2023-02-01T00:23:34;26.03;;;12.13;;
16189;SDS011;41754;51.498;7.540;2023-02-01T00:26:03;20.83;;;11.23;;
16189;SDS011;41754;51.498;7.540;2023-02-01T00:28:34;23.33;;;10.77;;
16189;SDS011;41754;51.498;7.540;2023-02-01T00:31:02;21.47;;;10.83;;
16189;SDS011;41754;51.498;7.540;2023-02-01T00:33:32;18.63;;;10.13;;
16189;SDS011;41754;51.498;7.540;2023-02-01T00:36:01;22.17;;;10.10;;
16189;SDS011;41754;51.498;7.540;2023-02-01T00:38:30;19.70;;;9.50;;
16189;SDS011;41754;51.498;7.540;2023-02-01T00:41:01;17.77;;;9.07;;
16189;SDS011;41754;51.498;7.540;2023-02-01T00:43:30;20.87;;;9.03;;
16189;SDS011;41754;51.498;7.540;2023-02-01T00:45:59;21.70;;;8.97;;
16189;SDS011;41754;51.498;7.540;2023-02-01T00:48:28;18.57;;;8.37;;
16189;SDS011;41754;51.498;7.540;2023-02-01T00:50:58;20.80;;;7.97;;
16189;SDS011;41754;51.498;7.540;2023-02-01T00:53:27;20.83;;;7.37;;
16189;SDS011;41754;51.498;7.540;2023-02-01T00:55:55;16.27;;;6.27;;
16189;SDS011;41754;51.498;7.540;2023-02-01T00:58:24;19.30;;;6.90;;
16189;SDS011;41754;51.498;7.540;2023-02-01T01:01:01;16.53;;;6.77;;
16189;SDS011;41754;51.498;7.540;2023-02-01T01:03:31;17.50;;;6.20;;
16189;SDS011;41754;51.498;7.540;2023-02-01T01:06:01;15.33;;;5.57;;
16189;SDS011;41754;51.498;7.540;2023-02-01T01:08:31;23.27;;;5.57;;
16189;SDS011;41754;51.498;7.540;2023-02-01T01:11:03;17.63;;;5.30;;
16189;SDS011;41754;51.498;7.540;2023-02-01T01:13:32;17.27;;;5.63;;
16189;SDS011;41754;51.498;7.540;2023-02-01T01:16:01;16.13;;;4.93;;
16189;SDS011;41754;51.498;7.540;2023-02-01T01:18:31;18.63;;;5.30;;
16189;SDS011;41754;51.498;7.540;2023-02-01T01:21:00;16.93;;;5.20;;
16189;SDS011;41754;51.498;7.540;2023-02-01T01:23:28;14.00;;;5.10;;
16189;SDS011;41754;51.498;7.540;2023-02-01T01:25:56;15.23;;;4.67;;
16189;SDS011;41754;51.498;7.540;2023-02-01T01:28:24;12.63;;;4.37;;
16189;SDS011;41754;51.498;7.540;2023-02-01T01:30:51;16.23;;;4.80;;
16189;SDS011;41754;51.498;7.540;2023-02-01T01:33:21;17.97;;;4.73;;
16189;SDS011;41754;51.498;7.540;2023-02-01T01:35:48;18.67;;;4.70;;
16189;SDS011;41754;51.498;7.540;2023-02-01T01:38:16;18.23;;;5.07;;
16189;SDS011;41754;51.498;7.540;2023-02-01T01:40:44;15.97;;;4.77;;
16189;SDS011;41754;51.498;7.540;2023-02-01T01:43:13;17.63;;;4.33;;
16189;SDS011;41754;51.498;7.540;2023-02-01T01:45:42;16.53;;;4.73;;
16189;SDS011;41754;51.498;7.540;2023-02-01T01:48:12;16.70;;;5.67;;
16189;SDS011;41754;51.498;7.540;2023-02-01T01:50:46;17.70;;;4.97;;
16189;SDS011;41754;51.498;7.540;2023-02-01T01:53:18;13.97;;;4.90;;
16189;SDS011;41754;51.498;7.540;2023-02-01T01:55:50;14.43;;;5.03;;
16189;SDS011;41754;51.498;7.540;2023-02-01T01:58:21;14.47;;;4.70;;
16189;SDS011;41754;51.498;7.540;2023-02-01T02:00:52;18.40;;;5.70;;
16189;SDS011;41754;51.498;7.540;2023-02-01T02:03:22;19.57;;;5.87;;
16189;SDS011;41754;51.498;7.540;2023-02-01T02:05:57;13.50;;;5.13;;
16189;SDS011;41754;51.498;7.540;2023-02-01T02:08:27;12.03;;;4.97;;
16189;SDS011;41754;51.498;7.540;2023-02-01T02:10:56;13.43;;;4.80;;
16189;SDS011;41754;51.498;7.540;2023-02-01T02:13:27;14.40;;;5.27;;
16189;SDS011;41754;51.498;7.540;2023-02-01T02:16:00;17.33;;;5.30;;
16189;SDS011;41754;51.498;7.540;2023-02-01T02:18:47;17.40;;;5.57;;
16189;SDS011;41754;51.498;7.540;2023-02-01T02:21:33;18.43;;;5.83;;
16189;SDS011;41754;51.498;7.540;2023-02-01T02:24:29;13.97;;;5.00;;
16189;SDS011;41754;51.498;7.540;2023-02-01T02:27:19;12.80;;;5.67;;
16189;SDS011;41754;51.498;7.540;2023-02-01T02:30:15;17.67;;;5.57;;
16189;SDS011;41754;51.498;7.540;2023-02-01T02:36:07;16.97;;;5.50;;
16189;SDS011;41754;51.498;7.540;2023-02-01T02:38:45;19.50;;;5.83;;
16189;SDS011;41754;51.498;7.540;2023-02-01T02:41:20;16.07;;;5.80;;
16189;SDS011;41754;51.498;7.540;2023-02-01T02:44:13;11.77;;;5.57;;
16189;SDS011;41754;51.498;7.540;2023-02-01T02:47:10;14.93;;;5.43;;
16189;SDS011;41754;51.498;7.540;2023-02-01T02:49:56;17.40;;;5.80;;
16189;SDS011;41754;51.498;7.540;2023-02-01T02:52:51;13.93;;;5.07;;
16189;SDS011;41754;51.498;7.540;2023-02-01T02:55:43;16.37;;;5.93;;
16189;SDS011;41754;51.498;7.540;2023-02-01T02:58:14;15.40;;;5.90;;
16189;SDS011;41754;51.498;7.540;2023-02-01T03:01:01;16.03;;;5.43;;
16189;SDS011;41754;51.498;7.540;2023-02-01T03:03:48;15.80;;;5.20;;
16189;SDS011;41754;51.498;7.540;2023-02-01T03:06:38;16.20;;;5.27;;
16189;SDS011;41754;51.498;7.540;2023-02-01T03:09:08;19.00;;;5.30;;
16189;SDS011;41754;51.498;7.540;2023-02-01T03:11:41;10.77;;;4.73;;
16189;SDS011;41754;51.498;7.540;2023-02-01T03:14:30;16.90;;;4.97;;
16189;SDS011;41754;51.498;7.540;2023-02-01T03:17:04;16.47;;;4.43;;
16189;SDS011;41754;51.498;7.540;2023-02-01T03:19:39;15.93;;;4.90;;
16189;SDS011;41754;51.498;7.540;2023-02-01T03:22:16;16.07;;;5.00;;
16189;SDS011;41754;51.498;7.540;2023-02-01T03:24:47;19.60;;;4.90;;
16189;SDS011;41754;51.498;7.540;2023-02-01T03:27:21;15.80;;;4.50;;
16189;SDS011;41754;51.498;7.540;2023-02-01T03:29:54;19.27;;;4.00;;
16189;SDS011;41754;51.498;7.540;2023-02-01T03:32:27;14.27;;;4.27;;
16189;SDS011;41754;51.498;7.540;2023-02-01T03:34:55;16.80;;;4.23;;
16189;SDS011;41754;51.498;7.540;2023-02-01T03:37:26;13.67;;;4.17;;
16189;SDS011;41754;51.498;7.540;2023-02-01T03:39:57;18.63;;;4.50;;
16189;SDS011;41754;51.498;7.540;2023-02-01T03:42:31;15.43;;;3.97;;
16189;SDS011;41754;51.498;7.540;2023-02-01T03:45:03;15.93;;;4.20;;
16189;SDS011;41754;51.498;7.540;2023-02-01T03:47:36;15.30;;;4.80;;
16189;SDS011;41754;51.498;7.540;2023-02-01T03:50:07;16.43;;;4.17;;
16189;SDS011;41754;51.498;7.540;2023-02-01T03:52:39;13.30;;;3.83;;
16189;SDS011;41754;51.498;7.540;2023-02-01T03:55:14;19.70;;;4.40;;
16189;SDS011;41754;51.498;7.540;2023-02-01T03:57:49;14.37;;;4.23;;
16189;SDS011;41754;51.498;7.540;2023-02-01T04:00:20;14.47;;;4.47;;
16189;SDS011;41754;51.498;7.540;2023-02-01T04:02:52;14.10;;;3.73;;
16189;SDS011;41754;51.498;7.540;2023-02-01T04:05:21;12.73;;;4.37;;
16189;SDS011;41754;51.498;7.540;2023-02-01T04:08:03;16.10;;;4.37;;
16189;SDS011;41754;51.498;7.540;2023-02-01T04:10:32;14.80;;;3.93;;
16189;SDS011;41754;51.498;7.540;2023-02-01T04:13:00;18.60;;;4.07;;
16189;SDS011;41754;51.498;7.540;2023-02-01T04:15:27;16.43;;;4.40;;
16189;SDS011;41754;51.498;7.540;2023-02-01T04:17:55;20.53;;;4.80;;
16189;SDS011;41754;51.498;7.540;2023-02-01T04:20:23;14.87;;;3.37;;
16189;SDS011;41754;51.498;7.540;2023-02-01T04:22:51;16.33;;;4.27;;
16189;SDS011;41754;51.498;7.540;2023-02-01T04:25:20;16.70;;;3.60;;
16189;SDS011;41754;51.498;7.540;2023-02-01T04:27:48;15.03;;;4.17;;
16189;SDS011;41754;51.498;7.540;2023-02-01T04:30:16;14.37;;;4.10;;
16189;SDS011;41754;51.498;7.540;2023-02-01T04:32:44;17.33;;;4.27;;
16189;SDS011;41754;51.498;7.540;2023-02-01T04:35:12;11.63;;;3.70;;
16189;SDS011;41754;51.498;7.540;2023-02-01T04:37:40;14.30;;;3.57;;
16189;SDS011;41754;51.498;7.540;2023-02-01T04:40:08;13.03;;;3.43;;
16189;SDS011;41754;51.498;7.540;2023-02-01T04:42:38;17.00;;;3.93;;
16189;SDS011;41754;51.498;7.540;2023-02-01T04:45:06;14.07;;;3.50;;
16189;SDS011;41754;51.498;7.540;2023-02-01T04:47:35;13.93;;;3.73;;
16189;SDS011;41754;51.498;7.540;2023-02-01T04:50:03;15.37;;;3.33;;
16189;SDS011;41754;51.498;7.540;2023-02-01T04:52:33;17.23;;;4.63;;
16189;SDS011;41754;51.498;7.540;2023-02-01T04:55:00;16.03;;;4.13;;
16189;SDS011;41754;51.498;7.540;2023-02-01T04:57:29;16.17;;;3.97;;
16189;SDS011;41754;51.498;7.540;2023-02-01T04:59:58;17.93;;;4.33;;
16189;SDS011;41754;51.498;7.540;2023-02-01T05:02:26;23.60;;;5.23;;
16189;SDS011;41754;51.498;7.540;2023-02-01T05:04:54;13.67;;;4.13;;
16189;SDS011;41754;51.498;7.540;2023-02-01T05:07:22;18.27;;;4.90;;
16189;SDS011;41754;51.498;7.540;2023-02-01T05:09:50;18.50;;;4.33;;
16189;SDS011;41754;51.498;7.540;2023-02-01T05:12:17;18.83;;;4.50;;
16189;SDS011;41754;51.498;7.540;2023-02-01T05:15:04;20.97;;;5.20;;
16189;SDS011;41754;51.498;7.540;2023-02-01T05:17:32;19.83;;;4.30;;
16189;SDS011;41754;51.498;7.540;2023-02-01T05:20:00;18.33;;;4.90;;
16189;SDS011;41754;51.498;7.540;2023-02-01T05:22:28;23.97;;;4.90;;
16189;SDS011;41754;51.498;7.540;2023-02-01T05:24:56;14.80;;;4.33;;
16189;SDS011;41754;51.498;7.540;2023-02-01T05:27:23;13.30;;;4.13;;
16189;SDS011;41754;51.498;7.540;2023-02-01T05:29:51;13.00;;;3.40;;
16189;SDS011;41754;51.498;7.540;2023-02-01T05:32:20;16.07;;;4.10;;
16189;SDS011;41754;51.498;7.540;2023-02-01T05:34:49;16.93;;;4.07;;
16189;SDS011;41754;51.498;7.540;2023-02-01T05:37:17;14.23;;;5.03;;
16189;SDS011;41754;51.498;7.540;2023-02-01T05:39:44;21.67;;;4.47;;
16189;SDS011;41754;51.498;7.540;2023-02-01T05:42:12;17.73;;;4.30;;
16189;SDS011;41754;51.498;7.540;2023-02-01T05:44:40;16.60;;;3.93;;
16189;SDS011;41754;51.498;7.540;2023-02-01T05:47:08;23.70;;;4.80;;
16189;SDS011;41754;51.498;7.540;2023-02-01T05:49:37;16.73;;;4.33;;
16189;SDS011;41754;51.498;7.540;2023-02-01T05:52:05;23.00;;;4.97;;
16189;SDS011;41754;51.498;7.540;2023-02-01T05:54:33;18.57;;;5.13;;
16189;SDS011;41754;51.498;7.540;2023-02-01T05:57:00;15.27;;;4.23;;
16189;SDS011;41754;51.498;7.540;2023-02-01T05:59:29;15.97;;;4.50;;
16189;SDS011;41754;51.498;7.540;2023-02-01T06:01:57;20.93;;;5.13;;
16189;SDS011;41754;51.498;7.540;2023-02-01T06:04:25;16.53;;;4.40;;
16189;SDS011;41754;51.498;7.540;2023-02-01T06:06:54;22.40;;;5.03;;
16189;SDS011;41754;51.498;7.540;2023-02-01T06:09:22;19.30;;;4.77;;
16189;SDS011;41754;51.498;7.540;2023-02-01T06:11:50;19.20;;;4.53;;
16189;SDS011;41754;51.498;7.540;2023-02-01T06:14:17;15.53;;;3.67;;
16189;SDS011;41754;51.498;7.540;2023-02-01T06:16:45;16.07;;;4.60;;
16189;SDS011;41754;51.498;7.540;2023-02-01T06:19:13;19.53;;;4.20;;
16189;SDS011;41754;51.498;7.540;2023-02-01T06:21:41;18.37;;;3.83;;
16189;SDS011;41754;51.498;7.540;2023-02-01T06:24:10;18.97;;;5.67;;
16189;SDS011;41754;51.498;7.540;2023-02-01T06:26:38;21.47;;;4.80;;
16189;SDS011;41754;51.498;7.540;2023-02-01T06:29:06;26.57;;;5.20;;
16189;SDS011;41754;51.498;7.540;2023-02-01T06:31:34;14.53;;;3.87;;
16189;SDS011;41754;51.498;7.540;2023-02-01T06:34:02;21.20;;;5.40;;
16189;SDS011;41754;51.498;7.540;2023-02-01T06:36:30;23.40;;;5.30;;
16189;SDS011;41754;51.498;7.540;2023-02-01T06:38:58;21.60;;;5.10;;
16189;SDS011;41754;51.498;7.540;2023-02-01T06:41:27;23.93;;;4.90;;
16189;SDS011;41754;51.498;7.540;2023-02-01T06:43:55;13.00;;;4.63;;
16189;SDS011;41754;51.498;7.540;2023-02-01T06:46:23;19.73;;;4.53;;
16189;SDS011;41754;51.498;7.540;2023-02-01T06:48:51;22.30;;;7.87;;
16189;SDS011;41754;51.498;7.540;2023-02-01T06:51:20;26.00;;;5.43;;
16189;SDS011;41754;51.498;7.540;2023-02-01T06:53:49;13.53;;;4.37;;
16189;SDS011;41754;51.498;7.540;2023-02-01T06:56:17;20.27;;;5.03;;
16189;SDS011;41754;51.498;7.540;2023-02-01T06:58:47;21.67;;;4.77;;
16189;SDS011;41754;51.498;7.540;2023-02-01T07:01:15;17.07;;;5.40;;
16189;SDS011;41754;51.498;7.540;2023-02-01T07:03:46;21.97;;;5.13;;
16189;SDS011;41754;51.498;7.540;2023-02-01T07:06:15;16.57;;;4.43;;
16189;SDS011;41754;51.498;7.540;2023-02-01T07:08:43;20.63;;;5.60;;
16189;SDS011;41754;51.498;7.540;2023-02-01T07:11:12;19.03;;;4.50;;
16189;SDS011;41754;51.498;7.540;2023-02-01T07:13:41;15.90;;;4.40;;
16189;SDS011;41754;51.498;7.540;2023-02-01T07:16:11;15.00;;;4.10;;
16189;SDS011;41754;51.498;7.540;2023-02-01T07:18:40;18.87;;;5.03;;
16189;SDS011;41754;51.498;7.540;2023-02-01T07:21:08;14.73;;;4.40;;
16189;SDS011;41754;51.498;7.540;2023-02-01T07:23:36;20.67;;;5.07;;
16189;SDS011;41754;51.498;7.540;2023-02-01T07:26:05;13.30;;;4.10;;
16189;SDS011;41754;51.498;7.540;2023-02-01T07:28:34;13.57;;;4.30;;
16189;SDS011;41754;51.498;7.540;2023-02-01T07:31:04;17.60;;;4.43;;
16189;SDS011;41754;51.498;7.540;2023-02-01T07:33:35;18.67;;;5.70;;
16189;SDS011;41754;51.498;7.540;2023-02-01T07:36:03;23.27;;;5.90;;
16189;SDS011;41754;51.498;7.540;2023-02-01T07:38:33;19.43;;;4.67;;
16189;SDS011;41754;51.498;7.540;2023-02-01T07:41:02;14.87;;;4.37;;
16189;SDS011;41754;51.498;7.540;2023-02-01T07:43:31;16.70;;;4.70;;
16189;SDS011;41754;51.498;7.540;2023-02-01T07:46:00;19.40;;;5.43;;
16189;SDS011;41754;51.498;7.540;2023-02-01T07:48:29;14.97;;;4.37;;
16189;SDS011;41754;51.498;7.540;2023-02-01T07:50:59;17.70;;;5.30;;
16189;SDS011;41754;51.498;7.540;2023-02-01T07:53:30;23.07;;;4.80;;
16189;SDS011;41754;51.498;7.540;2023-02-01T07:55:58;14.43;;;4.03;;
16189;SDS011;41754;51.498;7.540;2023-02-01T07:58:26;23.30;;;5.13;;
16189;SDS011;41754;51.498;7.540;2023-02-01T08:00:54;18.47;;;5.07;;
16189;SDS011;41754;51.498;7.540;2023-02-01T08:03:40;16.60;;;4.90;;
16189;SDS011;41754;51.498;7.540;2023-02-01T08:06:09;16.50;;;5.03;;
16189;SDS011;41754;51.498;7.540;2023-02-01T08:08:37;16.67;;;4.83;;
16189;SDS011;41754;51.498;7.540;2023-02-01T08:11:05;29.10;;;4.30;;
16189;SDS011;41754;51.498;7.540;2023-02-01T08:13:34;18.50;;;5.77;;
16189;SDS011;41754;51.498;7.540;2023-02-01T08:16:03;23.40;;;5.57;;
16189;SDS011;41754;51.498;7.540;2023-02-01T08:18:33;20.13;;;5.83;;
16189;SDS011;41754;51.498;7.540;2023-02-01T08:21:04;19.63;;;5.53;;
16189;SDS011;41754;51.498;7.540;2023-02-01T08:23:35;15.13;;;4.60;;
16189;SDS011;41754;51.498;7.540;2023-02-01T08:26:08;24.20;;;6.17;;
16189;SDS011;41754;51.498;7.540;2023-02-01T08:28:37;19.70;;;5.50;;
16189;SDS011;41754;51.498;7.540;2023-02-01T08:31:07;18.27;;;5.43;;
16189;SDS011;41754;51.498;7.540;2023-02-01T08:33:36;18.10;;;5.93;;
16189;SDS011;41754;51.498;7.540;2023-02-01T08:36:04;15.23;;;5.53;;
16189;SDS011;41754;51.498;7.540;2023-02-01T08:38:38;20.60;;;6.10;;
16189;SDS011;41754;51.498;7.540;2023-02-01T08:41:07;20.50;;;6.30;;
16189;SDS011;41754;51.498;7.540;2023-02-01T08:43:36;19.27;;;6.27;;
16189;SDS011;41754;51.498;7.540;2023-02-01T08:46:04;20.10;;;6.30;;
16189;SDS011;41754;51.498;7.540;2023-02-01T08:48:32;20.90;;;5.80;;
16189;SDS011;41754;51.498;7.540;2023-02-01T08:51:01;17.90;;;6.40;;
16189;SDS011;41754;51.498;7.540;2023-02-01T08:53:29;19.07;;;5.90;;
16189;SDS011;41754;51.498;7.540;2023-02-01T08:55:59;19.67;;;5.87;;
16189;SDS011;41754;51.498;7.540;2023-02-01T08:58:27;22.77;;;6.17;;
16189;SDS011;41754;51.498;7.540;2023-02-01T09:00:55;18.77;;;6.10;;
16189;SDS011;41754;51.498;7.540;2023-02-01T09:03:23;25.70;;;6.50;;
16189;SDS011;41754;51.498;7.540;2023-02-01T09:05:50;15.97;;;5.20;;
16189;SDS011;41754;51.498;7.540;2023-02-01T09:08:19;19.17;;;5.87;;
16189;SDS011;41754;51.498;7.540;2023-02-01T09:10:47;20.33;;;5.47;;
16189;SDS011;41754;51.498;7.540;2023-02-01T09:13:17;21.37;;;6.00;;
16189;SDS011;41754;51.498;7.540;2023-02-01T09:15:44;20.43;;;6.60;;
16189;SDS011;41754;51.498;7.540;2023-02-01T09:18:13;17.33;;;5.80;;
16189;SDS011;41754;51.498;7.540;2023-02-01T09:20:40;17.77;;;5.93;;
16189;SDS011;41754;51.498;7.540;2023-02-01T09:23:08;16.53;;;5.93;;
16189;SDS011;41754;51.498;7.540;2023-02-01T09:25:36;18.27;;;6.00;;
16189;SDS011;41754;51.498;7.540;2023-02-01T09:28:05;20.67;;;6.30;;
16189;SDS011;41754;51.498;7.540;2023-02-01T09:30:36;19.27;;;5.43;;
16189;SDS011;41754;51.498;7.540;2023-02-01T09:33:04;17.50;;;5.57;;
16189;SDS011;41754;51.498;7.540;2023-02-01T09:35:32;16.17;;;5.30;;
16189;SDS011;41754;51.498;7.540;2023-02-01T09:38:00;20.77;;;5.80;;
16189;SDS011;41754;51.498;7.540;2023-02-01T09:40:28;15.23;;;5.53;;
16189;SDS011;41754;51.498;7.540;2023-02-01T09:43:00;18.87;;;5.30;;
16189;SDS011;41754;51.498;7.540;2023-02-01T09:45:46;20.87;;;5.27;;
16189;SDS011;41754;51.498;7.540;2023-02-01T09:48:24;15.43;;;5.40;;
16189;SDS011;41754;51.498;7.540;2023-02-01T09:50:57;16.43;;;5.20;;
16189;SDS011;41754;51.498;7.540;2023-02-01T09:53:27;19.13;;;5.63;;
16189;SDS011;41754;51.498;7.540;2023-02-01T09:55:59;16.77;;;5.63;;
16189;SDS011;41754;51.498;7.540;2023-02-01T09:58:33;18.93;;;5.10;;
16189;SDS011;41754;51.498;7.540;2023-02-01T10:01:09;13.70;;;5.23;;
16189;SDS011;41754;51.498;7.540;2023-02-01T10:03:43;16.77;;;5.97;;
16189;SDS011;41754;51.498;7.540;2023-02-01T10:06:20;14.00;;;5.50;;
16189;SDS011;41754;51.498;7.540;2023-02-01T10:09:04;16.03;;;5.40;;
16189;SDS011;41754;51.498;7.540;2023-02-01T10:11:44;17.00;;;5.03;;
16189;SDS011;41754;51.498;7.540;2023-02-01T10:17:30;20.97;;;6.17;;
16189;SDS011;41754;51.498;7.540;2023-02-01T10:20:15;17.13;;;5.40;;
16189;SDS011;41754;51.498;7.540;2023-02-01T10:22:55;19.77;;;5.37;;
16189;SDS011;41754;51.498;7.540;2023-02-01T10:25:58;20.00;;;6.27;;
16189;SDS011;41754;51.498;7.540;2023-02-01T10:28:32;15.70;;;4.97;;
16189;SDS011;41754;51.498;7.540;2023-02-01T10:31:04;23.07;;;5.83;;
16189;SDS011;41754;51.498;7.540;2023-02-01T10:33:39;19.03;;;5.73;;
16189;SDS011;41754;51.498;7.540;2023-02-01T10:36:13;17.27;;;5.50;;
16189;SDS011;41754;51.498;7.540;2023-02-01T10:38:44;17.27;;;5.10;;
16189;SDS011;41754;51.498;7.540;2023-02-01T10:41:14;15.87;;;5.57;;
16189;SDS011;41754;51.498;7.540;2023-02-01T10:43:43;15.73;;;5.53;;
16189;SDS011;41754;51.498;7.540;2023-02-01T10:46:15;15.70;;;4.67;;
16189;SDS011;41754;51.498;7.540;2023-02-01T10:48:45;15.77;;;5.27;;
16189;SDS011;41754;51.498;7.540;2023-02-01T10:51:15;12.93;;;5.13;;
16189;SDS011;41754;51.498;7.540;2023-02-01T10:53:48;15.63;;;5.07;;
16189;SDS011;41754;51.498;7.540;2023-02-01T10:56:21;17.60;;;5.23;;
16189;SDS011;41754;51.498;7.540;2023-02-01T10:58:52;17.23;;;5.43;;
16189;SDS011;41754;51.498;7.540;2023-02-01T11:01:29;16.93;;;5.33;;
16189;SDS011;41754;51.498;7.540;2023-02-01T11:04:02;15.93;;;4.93;;
16189;SDS011;41754;51.498;7.540;2023-02-01T11:06:32;16.77;;;5.40;;
16189;SDS011;41754;51.498;7.540;2023-02-01T11:09:09;19.57;;;5.50;;
16189;SDS011;41754;51.498;7.540;2023-02-01T11:11:53;20.37;;;5.60;;
16189;SDS011;41754;51.498;7.540;2023-02-01T11:14:27;15.33;;;4.87;;
16189;SDS011;41754;51.498;7.540;2023-02-01T11:17:02;19.13;;;4.70;;
16189;SDS011;41754;51.498;7.540;2023-02-01T11:19:47;23.33;;;5.87;;
16189;SDS011;41754;51.498;7.540;2023-02-01T11:22:23;17.57;;;5.67;;
16189;SDS011;41754;51.498;7.540;2023-02-01T11:24:53;14.17;;;4.90;;
16189;SDS011;41754;51.498;7.540;2023-02-01T11:27:21;17.03;;;5.13;;
16189;SDS011;41754;51.498;7.540;2023-02-01T11:29:54;17.87;;;5.47;;
16189;SDS011;41754;51.498;7.540;2023-02-01T11:32:26;16.13;;;4.97;;
16189;SDS011;41754;51.498;7.540;2023-02-01T11:34:57;14.80;;;4.30;;
16189;SDS011;41754;51.498;7.540;2023-02-01T11:37:30;18.20;;;4.83;;
16189;SDS011;41754;51.498;7.540;2023-02-01T11:40:02;22.97;;;5.37;;
16189;SDS011;41754;51.498;7.540;2023-02-01T11:42:39;17.00;;;5.30;;
16189;SDS011;41754;51.498;7.540;2023-02-01T11:45:25;21.10;;;4.83;;
16189;SDS011;41754;51.498;7.540;2023-02-01T11:47:54;15.20;;;5.00;;
16189;SDS011;41754;51.498;7.540;2023-02-01T11:50:28;16.43;;;4.67;;
16189;SDS011;41754;51.498;7.540;2023-02-01T11:53:07;16.63;;;4.47;;
16189;SDS011;41754;51.498;7.540;2023-02-01T11:55:53;16.90;;;4.70;;
16189;SDS011;41754;51.498;7.540;2023-02-01T11:58:40;12.60;;;4.63;;
16189;SDS011;41754;51.498;7.540;2023-02-01T12:04:19;15.47;;;5.80;;
16189;SDS011;41754;51.498;7.540;2023-02-01T12:07:16;18.23;;;4.97;;
16189;SDS011;41754;51.498;7.540;2023-02-01T12:09:52;16.87;;;5.40;;
16189;SDS011;41754;51.498;7.540;2023-02-01T12:12:42;16.77;;;4.87;;
16189;SDS011;41754;51.498;7.540;2023-02-01T12:15:22;12.90;;;4.60;;
16189;SDS011;41754;51.498;7.540;2023-02-01T12:18:08;15.53;;;5.20;;
16189;SDS011;41754;51.498;7.540;2023-02-01T12:21:02;15.60;;;5.00;;
16189;SDS011;41754;51.498;7.540;2023-02-01T12:23:37;17.87;;;5.53;;
16189;SDS011;41754;51.498;7.540;2023-02-01T12:26:35;18.70;;;5.03;;
16189;SDS011;41754;51.498;7.540;2023-02-01T12:32:25;17.33;;;5.87;;
16189;SDS011;41754;51.498;7.540;2023-02-01T12:35:09;18.47;;;5.57;;
16189;SDS011;41754;51.498;7.540;2023-02-01T12:37:51;20.80;;;5.90;;
16189;SDS011;41754;51.498;7.540;2023-02-01T12:40:40;15.70;;;5.87;;
16189;SDS011;41754;51.498;7.540;2023-02-01T12:43:19;16.53;;;5.20;;
16189;SDS011;41754;51.498;7.540;2023-02-01T12:45:52;11.73;;;5.27;;
16189;SDS011;41754;51.498;7.540;2023-02-01T12:48:28;15.57;;;5.47;;
16189;SDS011;41754;51.498;7.540;2023-02-01T12:51:03;19.63;;;6.30;;
16189;SDS011;41754;51.498;7.540;2023-02-01T12:53:40;16.40;;;5.93;;
16189;SDS011;41754;51.498;7.540;2023-02-01T12:56:15;18.80;;;5.83;;
16189;SDS011;41754;51.498;7.540;2023-02-01T12:58:50;14.80;;;5.07;;
16189;SDS011;41754;51.498;7.540;2023-02-01T13:01:21;16.97;;;5.67;;
16189;SDS011;41754;51.498;7.540;2023-02-01T13:03:57;17.70;;;5.57;;
16189;SDS011;41754;51.498;7.540;2023-02-01T13:06:32;14.97;;;6.07;;
16189;SDS011;41754;51.498;7.540;2023-02-01T13:09:07;18.00;;;5.47;;
16189;SDS011;41754;51.498;7.540;2023-02-01T13:11:43;18.00;;;5.67;;
16189;SDS011;41754;51.498;7.540;2023-02-01T13:14:17;16.03;;;5.10;;
16189;SDS011;41754;51.498;7.540;2023-02-01T13:16:53;17.67;;;5.07;;
16189;SDS011;41754;51.498;7.540;2023-02-01T13:19:28;18.73;;;5.57;;
16189;SDS011;41754;51.498;7.540;2023-02-01T13:22:02;18.43;;;5.67;;
16189;SDS011;41754;51.498;7.540;2023-02-01T13:24:39;12.33;;;4.83;;
16189;SDS011;41754;51.498;7.540;2023-02-01T13:27:13;17.70;;;5.30;;
16189;SDS011;41754;51.498;7.540;2023-02-01T13:29:45;19.60;;;5.00;;
16189;SDS011;41754;51.498;7.540;2023-02-01T13:32:23;16.03;;;5.03;;
16189;SDS011;41754;51.498;7.540;2023-02-01T13:35:29;14.10;;;4.57;;
16189;SDS011;41754;51.498;7.540;2023-02-01T13:38:28;19.53;;;4.77;;
16189;SDS011;41754;51.498;7.540;2023-02-01T13:41:19;17.80;;;5.33;;
16189;SDS011;41754;51.498;7.540;2023-02-01T13:43:57;17.43;;;4.57;;
16189;SDS011;41754;51.498;7.540;2023-02-01T13:46:26;13.93;;;4.50;;
16189;SDS011;41754;51.498;7.540;2023-02-01T13:48:57;15.87;;;5.17;;
16189;SDS011;41754;51.498;7.540;2023-02-01T13:51:37;20.23;;;4.43;;
16189;SDS011;41754;51.498;7.540;2023-02-01T13:54:22;16.33;;;4.70;;
16189;SDS011;41754;51.498;7.540;2023-02-01T13:56:53;11.87;;;4.03;;
16189;SDS011;41754;51.498;7.540;2023-02-01T14:06:14;13.57;;;4.00;;
16189;SDS011;41754;51.498;7.540;2023-02-01T14:08:45;12.23;;;3.77;;
16189;SDS011;41754;51.498;7.540;2023-02-01T14:11:35;22.20;;;3.90;;
16189;SDS011;41754;51.498;7.540;2023-02-01T14:23:21;19.73;;;4.40;;
16189;SDS011;41754;51.498;7.540;2023-02-01T14:28:51;12.77;;;3.43;;
16189;SDS011;41754;51.498;7.540;2023-02-01T14:34:33;12.77;;;3.83;;
16189;SDS011;41754;51.498;7.540;2023-02-01T14:37:09;19.63;;;4.27;;
16189;SDS011;41754;51.498;7.540;2023-02-01T14:39:53;15.80;;;3.77;;
16189;SDS011;41754;51.498;7.540;2023-02-01T14:42:25;14.77;;;4.00;;
16189;SDS011;41754;51.498;7.540;2023-02-01T14:44:56;19.00;;;4.23;;
16189;SDS011;41754;51.498;7.540;2023-02-01T14:51:04;16.77;;;4.50;;
16189;SDS011;41754;51.498;7.540;2023-02-01T14:53:34;18.33;;;6.70;;
16189;SDS011;41754;51.498;7.540;2023-02-01T14:56:05;14.57;;;4.20;;
16189;SDS011;41754;51.498;7.540;2023-02-01T14:58:39;16.30;;;3.67;;
16189;SDS011;41754;51.498;7.540;2023-02-01T15:01:16;16.70;;;3.60;;
16189;SDS011;41754;51.498;7.540;2023-02-01T15:03:50;15.73;;;4.50;;
16189;SDS011;41754;51.498;7.540;2023-02-01T15:06:25;18.50;;;3.80;;
16189;SDS011;41754;51.498;7.540;2023-02-01T15:08:57;17.30;;;4.73;;
16189;SDS011;41754;51.498;7.540;2023-02-01T15:11:29;11.40;;;3.57;;
16189;SDS011;41754;51.498;7.540;2023-02-01T15:13:57;17.13;;;4.17;;
16189;SDS011;41754;51.498;7.540;2023-02-01T15:16:26;11.77;;;4.07;;
16189;SDS011;41754;51.498;7.540;2023-02-01T15:19:07;17.73;;;3.90;;
16189;SDS011;41754;51.498;7.540;2023-02-01T15:21:45;26.37;;;8.60;;
16189;SDS011;41754;51.498;7.540;2023-02-01T15:24:18;21.63;;;4.40;;
16189;SDS011;41754;51.498;7.540;2023-02-01T15:26:48;18.30;;;4.00;;
16189;SDS011;41754;51.498;7.540;2023-02-01T15:29:16;14.23;;;3.80;;
16189;SDS011;41754;51.498;7.540;2023-02-01T15:31:46;14.10;;;3.23;;
16189;SDS011;41754;51.498;7.540;2023-02-01T15:34:16;15.40;;;3.13;;
16189;SDS011;41754;51.498;7.540;2023-02-01T15:36:46;12.97;;;3.13;;
16189;SDS011;41754;51.498;7.540;2023-02-01T15:39:28;11.30;;;3.17;;
16189;SDS011;41754;51.498;7.540;2023-02-01T15:41:59;16.90;;;3.90;;
16189;SDS011;41754;51.498;7.540;2023-02-01T15:44:37;18.93;;;4.43;;